Time;durP1;ratioP1;P1;durP2;ratioP2;P2;SDS_P1;SDS_P2;PMS_P1;PMS_P2;Temp;Humidity;BMP_temperature;BMP_pressure;BME280_temperature;BME280_humidity;BME280_pressure;Samples;Min_cycle;Max_cycle;Signal;HPM_P1;HPM_P2
2023/02/10 05:50:25;;;;;;;110.35;90.78;;;;;;;-1.68;100.00;103462.91;5044677;27;20385;-77
2023/02/10 05:52:52;;;;;;;98.93;88.65;;;;;;;-1.07;100.00;103466.63;5017144;28;20502;-77
2023/02/10 05:55:19;;;;;;;108.25;97.50;;;;;;;-0.94;100.00;103460.84;5017464;28;20046;-77
2023/02/10 05:57:46;;;;;;;103.05;93.53;;;;;;;-0.74;100.00;103461.75;5015043;28;20495;-77
2023/02/10 06:00:14;;;;;;;106.20;96.72;;;;;;;-0.58;100.00;103470.59;5015546;28;20046;-77
2023/02/10 06:02:41;;;;;;;109.60;99.95;;;;;;;-0.43;100.00;103470.88;5013669;28;20116;-77
2023/02/10 06:05:08;;;;;;;106.15;96.18;;;;;;;-0.40;100.00;103466.34;5009466;28;20054;-77
2023/02/10 06:07:36;;;;;;;107.93;98.88;;;;;;;-0.28;100.00;103476.25;5013732;28;20057;-77
2023/02/10 06:10:03;;;;;;;106.93;97.43;;;;;;;-0.21;100.00;103481.22;5017697;28;20045;-77
2023/02/10 06:12:31;;;;;;;112.85;103.68;;;;;;;-0.14;100.00;103480.88;5025410;28;20042;-77
2023/02/10 06:14:57;;;;;;;117.65;108.03;;;;;;;-0.12;100.00;103489.53;5020374;28;20061;-77
2023/02/10 06:17:25;;;;;;;114.72;105.00;;;;;;;-0.05;100.00;103493.53;5018128;28;20050;-77
2023/02/10 06:19:52;;;;;;;115.40;104.85;;;;;;;0.04;100.00;103499.28;5021287;28;20506;-77
2023/02/10 06:22:19;;;;;;;113.45;103.45;;;;;;;0.00;100.00;103488.13;5022628;28;20115;-77
2023/02/10 06:24:47;;;;;;;114.32;104.75;;;;;;;-0.01;100.00;103479.41;5020349;28;20127;-77
2023/02/10 06:27:14;;;;;;;111.68;102.50;;;;;;;0.13;100.00;103481.41;5020563;28;20064;-77
2023/02/10 06:29:41;;;;;;;111.57;102.35;;;;;;;0.20;100.00;103492.44;5023628;28;20048;-77
2023/02/10 06:32:07;;;;;;;108.57;99.15;;;;;;;0.18;100.00;103479.44;5020737;28;20049;-77
2023/02/10 06:34:34;;;;;;;111.00;101.78;;;;;;;0.19;100.00;103472.44;5024124;28;20045;-77
2023/02/10 06:37:01;;;;;;;108.32;99.32;;;;;;;0.25;100.00;103477.38;5022675;28;20511;-77
2023/02/10 06:39:28;;;;;;;109.93;100.75;;;;;;;0.29;100.00;103494.63;5023121;28;20054;-77
2023/02/10 06:41:57;;;;;;;113.18;103.60;;;;;;;0.31;100.00;103484.09;5027976;28;20054;-77
2023/02/10 06:44:24;;;;;;;112.32;103.22;;;;;;;0.32;100.00;103488.41;5020350;28;20042;-77
2023/02/10 06:46:51;;;;;;;106.57;98.07;;;;;;;0.32;100.00;103478.78;5018130;28;20041;-77
2023/02/10 06:49:17;;;;;;;107.60;99.03;;;;;;;0.39;100.00;103485.44;5021484;28;20503;-77
2023/02/10 06:51:44;;;;;;;105.88;97.40;;;;;;;0.43;100.00;103497.44;5021333;28;20054;-77
2023/02/10 06:54:11;;;;;;;105.30;96.43;;;;;;;0.53;100.00;103491.78;5022623;28;20050;-77
2023/02/10 06:56:41;;;;;;;103.97;95.30;;;;;;;0.52;100.00;103490.09;5029017;28;20739;-77
2023/02/10 06:59:09;;;;;;;102.30;93.60;;;;;;;0.61;100.00;103489.66;5018051;28;20496;-77
2023/02/10 07:01:36;;;;;;;100.15;91.82;;;;;;;0.63;100.00;103475.56;5002355;28;20062;-77
2023/02/10 07:04:03;;;;;;;102.22;93.90;;;;;;;0.67;100.00;103466.66;5003942;28;20052;-77
2023/02/10 07:06:29;;;;;;;105.07;96.72;;;;;;;0.69;100.00;103484.88;5004826;28;20057;-77
2023/02/10 07:08:56;;;;;;;103.65;95.18;;;;;;;0.67;100.00;103477.13;5000727;28;20423;-77
2023/02/10 07:11:23;;;;;;;103.65;95.30;;;;;;;0.78;100.00;103486.22;4990402;28;20054;-77
2023/02/10 07:13:50;;;;;;;102.47;94.30;;;;;;;0.81;100.00;103475.59;5004465;28;20050;-77
2023/02/10 07:16:18;;;;;;;104.47;95.95;;;;;;;0.95;100.00;103486.25;5005916;28;20080;-77
2023/02/10 07:18:44;;;;;;;101.32;93.15;;;;;;;0.94;100.00;103481.06;5005031;28;20421;-77
2023/02/10 07:21:11;;;;;;;106.75;98.07;;;;;;;0.93;100.00;103474.16;5006167;28;20061;-77
2023/02/10 07:23:38;;;;;;;112.90;103.45;;;;;;;0.98;100.00;103475.63;5003019;28;20112;-77
2023/02/10 07:26:05;;;;;;;108.20;99.22;;;;;;;1.07;100.00;103476.94;5006155;28;20565;-77
2023/02/10 07:28:32;;;;;;;105.07;96.18;;;;;;;1.07;100.00;103474.34;5003013;28;20050;-77
2023/02/10 07:30:59;;;;;;;108.30;99.57;;;;;;;1.11;100.00;103481.09;5008806;28;20532;-77
2023/02/10 07:33:28;;;;;;;102.57;94.45;;;;;;;1.16;100.00;103473.88;5007979;28;20049;-77
2023/02/10 07:35:55;;;;;;;104.55;96.15;;;;;;;1.20;100.00;103472.78;5008308;28;20042;-77
2023/02/10 07:38:21;;;;;;;105.93;97.40;;;;;;;1.30;100.00;103484.50;5008578;28;20496;-80
2023/02/10 07:40:48;;;;;;;107.22;98.45;;;;;;;1.32;100.00;103474.78;5014097;28;20093;-80
2023/02/10 07:43:15;;;;;;;106.25;97.72;;;;;;;1.34;100.00;103466.84;5013438;28;20041;-77
2023/02/10 07:45:41;;;;;;;105.70;97.28;;;;;;;1.46;100.00;103465.38;5007916;28;20049;-77
2023/02/10 07:48:08;;;;;;;106.47;98.28;;;;;;;1.48;100.00;103456.50;5007764;28;20046;-77
2023/02/10 07:50:36;;;;;;;106.88;98.32;;;;;;;1.56;100.00;103458.72;5008485;28;20041;-77
2023/02/10 07:53:03;;;;;;;107.75;99.13;;;;;;;1.62;100.00;103454.94;5006411;28;20108;-77
2023/02/10 07:55:30;;;;;;;103.20;95.07;;;;;;;1.73;100.00;103461.31;5009748;28;20512;-80
2023/02/10 07:57:56;;;;;;;108.20;98.55;;;;;;;1.76;100.00;103452.47;5007589;28;20101;-79
2023/02/10 08:00:23;;;;;;;108.07;99.18;;;;;;;1.89;100.00;103453.47;5009954;28;20053;-78
2023/02/10 08:02:50;;;;;;;105.75;97.10;;;;;;;1.98;100.00;103455.59;5008574;28;20052;-77
2023/02/10 08:05:17;;;;;;;107.05;98.25;;;;;;;2.10;100.00;103459.34;5006832;28;20104;-77
2023/02/10 08:07:45;;;;;;;107.00;98.53;;;;;;;2.15;100.00;103446.84;5008411;28;20108;-77
2023/02/10 08:10:12;;;;;;;105.38;96.47;;;;;;;2.26;100.00;103456.72;5009229;28;20050;-77
2023/02/10 08:12:39;;;;;;;97.63;89.57;;;;;;;2.28;100.00;103449.63;5009490;28;20046;-80
2023/02/10 08:15:06;;;;;;;104.18;95.60;;;;;;;2.42;100.00;103448.84;5010983;28;20050;-80
2023/02/10 08:17:33;;;;;;;108.43;99.82;;;;;;;2.51;100.00;103454.44;5008958;28;20078;-80
2023/02/10 08:20:00;;;;;;;100.10;92.18;;;;;;;2.65;100.00;103452.81;5013912;28;20193;-80
2023/02/10 08:22:27;;;;;;;99.03;90.88;;;;;;;2.69;100.00;103449.06;5009663;28;20050;-77
2023/02/10 08:24:55;;;;;;;104.10;96.03;;;;;;;2.78;100.00;103447.69;5011082;28;20073;-79
2023/02/10 08:27:22;;;;;;;100.43;92.07;;;;;;;2.89;100.00;103445.31;5011509;28;20042;-80
2023/02/10 08:29:49;;;;;;;102.63;94.03;;;;;;;3.04;100.00;103454.06;5009299;28;20050;-80
2023/02/10 08:32:18;;;;;;;101.13;92.47;;;;;;;3.12;100.00;103443.97;5008239;28;20100;-80
2023/02/10 08:34:45;;;;;;;114.63;105.85;;;;;;;3.22;100.00;103451.19;5011777;28;20057;-80
2023/02/10 08:37:12;;;;;;;108.78;100.13;;;;;;;3.31;100.00;103446.34;5006922;28;20562;-80
2023/02/10 08:39:39;;;;;;;108.40;99.57;;;;;;;3.45;100.00;103454.25;5011753;28;20057;-80
2023/02/10 08:42:07;;;;;;;105.05;96.75;;;;;;;3.58;100.00;103454.34;5005849;28;20046;-80
2023/02/10 08:44:34;;;;;;;108.85;100.25;;;;;;;3.73;100.00;103469.19;5007925;28;20462;-80
2023/02/10 08:47:00;;;;;;;112.93;103.72;;;;;;;3.79;100.00;103466.19;5007787;28;20045;-80
2023/02/10 08:49:28;;;;;;;109.78;101.20;;;;;;;3.95;100.00;103460.81;5005266;28;20084;-80
2023/02/10 08:51:55;;;;;;;112.63;103.57;;;;;;;4.04;100.00;103467.28;5011573;28;20058;-80
2023/02/10 08:54:23;;;;;;;112.80;103.78;;;;;;;4.15;100.00;103458.75;5009033;28;20116;-80
2023/02/10 08:56:54;;;;;;;114.13;104.65;;;;;;;4.20;100.00;103457.47;5003496;28;20115;-80
2023/02/10 08:59:22;;;;;;;112.68;103.35;;;;;;;4.28;100.00;103452.59;5012273;28;20045;-79
2023/02/10 09:01:49;;;;;;;108.75;100.10;;;;;;;4.47;100.00;103448.78;5009118;28;20100;-79
2023/02/10 09:04:16;;;;;;;106.68;97.80;;;;;;;4.54;100.00;103443.03;5009389;28;20050;-80
2023/02/10 09:06:43;;;;;;;112.13;103.32;;;;;;;4.68;100.00;103438.63;5013191;28;20120;-79
2023/02/10 09:09:10;;;;;;;115.00;105.85;;;;;;;4.96;100.00;103440.28;4314981;28;10000936;-80
2023/02/10 09:11:37;;;;;;;104.00;95.03;;;;;;;5.21;100.00;103440.31;5014321;28;20045;-80
2023/02/10 09:14:04;;;;;;;105.47;96.57;;;;;;;5.60;100.00;103451.72;5002875;28;20117;-80
2023/02/10 09:16:32;;;;;;;112.10;103.00;;;;;;;6.04;96.68;103434.56;5002455;28;20510;-80
2023/02/10 09:18:59;;;;;;;105.72;96.97;;;;;;;6.58;89.73;103443.88;5008247;28;20057;-80
2023/02/10 09:21:26;;;;;;;115.75;106.25;;;;;;;7.14;81.72;103444.09;5003406;28;20050;-80
2023/02/10 09:23:53;;;;;;;115.43;106.03;;;;;;;7.85;74.33;103444.72;5008190;28;20065;-79
2023/02/10 09:26:19;;;;;;;116.40;107.25;;;;;;;8.84;67.24;103438.47;5001228;28;20053;-80
2023/02/10 09:28:46;;;;;;;112.07;103.07;;;;;;;9.84;59.16;103438.72;5001322;28;20043;-79
2023/02/10 09:31:15;;;;;;;114.07;105.18;;;;;;;11.51;52.55;103435.09;5002959;28;20099;-80
2023/02/10 09:33:44;;;;;;;117.45;108.30;;;;;;;13.73;44.73;103445.75;5009942;28;20046;-80
2023/02/10 09:36:14;;;;;;;111.00;101.85;;;;;;;15.21;39.41;103435.25;5005271;28;20045;-80
2023/02/10 09:38:41;;;;;;;111.35;102.47;;;;;;;16.47;35.89;103429.81;5008746;28;20634;-80
2023/02/10 09:41:15;;;;;;;118.60;108.70;;;;;;;16.68;34.47;103429.13;5001882;28;20046;-79
2023/02/10 09:43:58;;;;;;;118.65;109.57;;;;;;;17.40;32.77;103420.56;5012760;28;20675;-80
2023/02/10 09:46:33;;;;;;;119.38;110.07;;;;;;;14.53;33.87;103418.59;5010932;28;20055;-80
2023/02/10 09:49:16;;;;;;;119.20;109.95;;;;;;;14.76;36.61;103425.94;5009045;28;20467;-79
2023/02/10 09:51:53;;;;;;;123.95;114.15;;;;;;;16.86;32.66;103413.56;5005414;28;20101;-80
2023/02/10 09:54:20;;;;;;;126.50;116.35;;;;;;;17.03;31.78;103410.72;5013266;28;20490;-80
2023/02/10 09:56:48;;;;;;;130.65;120.65;;;;;;;17.93;30.68;103415.03;5011634;28;20050;-80
2023/02/10 09:59:21;;;;;;;120.38;111.13;;;;;;;17.99;30.05;103400.81;5010002;28;20109;-80
2023/02/10 10:01:52;;;;;;;117.60;108.50;;;;;;;18.22;29.00;103401.50;5009383;28;20069;-80
2023/02/10 10:04:23;;;;;;;121.18;111.53;;;;;;;18.66;28.47;103399.59;5010970;28;20054;-80
2023/02/10 10:06:53;;;;;;;125.50;116.03;;;;;;;18.87;28.31;103391.47;5012386;28;20054;-80
2023/02/10 10:09:29;;;;;;;121.30;111.85;;;;;;;19.34;27.60;103389.09;5014727;28;20534;-80
2023/02/10 10:11:56;;;;;;;118.65;109.40;;;;;;;19.78;27.46;103396.72;5011921;28;20117;-80
2023/02/10 10:14:26;;;;;;;118.40;109.07;;;;;;;19.36;26.66;103381.63;5010585;28;20046;-79
2023/02/10 10:17:20;;;;;;;124.07;114.05;;;;;;;19.48;26.87;103379.19;5007896;28;20073;-80
2023/02/10 10:19:59;;;;;;;128.50;118.40;;;;;;;20.04;26.41;103376.28;5008128;28;20561;-80
2023/02/10 10:22:39;;;;;;;123.85;114.22;;;;;;;20.08;25.58;103374.81;5004467;28;20058;-79
2023/02/10 10:25:20;;;;;;;123.78;113.88;;;;;;;20.14;25.68;103372.13;5013031;28;20503;-79
2023/02/10 10:28:00;;;;;;;122.05;112.50;;;;;;;20.23;26.17;103355.75;5008409;28;20042;-80
2023/02/10 10:30:36;;;;;;;122.90;113.05;;;;;;;20.58;25.70;103353.69;5009713;28;20054;-80
2023/02/10 10:33:15;;;;;;;128.90;118.90;;;;;;;20.36;25.74;103353.03;5014715;28;20176;-80
2023/02/10 10:35:44;;;;;;;121.68;111.88;;;;;;;20.09;25.69;103350.34;5010316;28;20103;-80
2023/02/10 10:38:14;;;;;;;122.82;112.45;;;;;;;15.74;29.11;103362.25;5016773;28;20047;-80
2023/02/10 10:40:42;;;;;;;115.97;106.55;;;;;;;18.29;27.78;103362.03;4973780;28;20062;-79
2023/02/10 10:43:15;;;;;;;119.93;110.13;;;;;;;19.10;27.08;103363.47;5009914;28;20066;-80
2023/02/10 10:45:45;;;;;;;121.72;112.15;;;;;;;19.47;26.49;103346.00;5013835;28;20136;-79
2023/02/10 10:48:17;;;;;;;117.95;108.50;;;;;;;19.74;26.11;103352.34;5009751;28;20073;-79
2023/02/10 10:50:45;;;;;;;116.57;107.07;;;;;;;20.52;25.65;103330.25;5010170;28;20133;-80
2023/02/10 10:53:16;;;;;;;118.65;108.75;;;;;;;20.66;25.13;103331.03;5014553;28;20076;-79
2023/02/10 10:55:49;;;;;;;118.32;108.53;;;;;;;20.60;25.20;103335.41;5015250;28;20056;-79
2023/02/10 10:58:28;;;;;;;123.03;113.00;;;;;;;20.81;25.08;103337.03;5010032;28;20125;-79
2023/02/10 11:00:56;;;;;;;124.50;114.60;;;;;;;20.80;24.59;103333.50;5014735;28;20128;-79
2023/02/10 11:03:24;;;;;;;117.10;107.78;;;;;;;20.27;25.18;103325.44;5010306;28;20104;-79
2023/02/10 11:06:06;;;;;;;117.05;107.65;;;;;;;20.34;24.93;103317.34;5007065;28;20100;-79
2023/02/10 11:08:38;;;;;;;119.63;110.10;;;;;;;19.94;25.45;103317.34;5006030;28;20047;-79
2023/02/10 11:11:09;;;;;;;128.27;117.90;;;;;;;19.97;25.33;103299.88;5011048;28;20128;-79
2023/02/10 11:13:39;;;;;;;126.93;117.27;;;;;;;20.10;25.51;103303.44;5008703;28;20046;-79
2023/02/10 11:16:11;;;;;;;115.40;106.00;;;;;;;19.89;25.88;103298.25;5011320;28;20054;-79
2023/02/10 11:18:39;;;;;;;116.80;107.57;;;;;;;19.87;25.47;103298.44;5008322;28;20419;-79
2023/02/10 11:21:11;;;;;;;124.78;113.15;;;;;;;19.89;25.54;103290.97;5012084;28;20506;-79
2023/02/10 11:23:48;;;;;;;130.20;120.00;;;;;;;19.53;25.70;103285.06;5010125;28;20569;-79
2023/02/10 11:26:21;;;;;;;125.05;115.65;;;;;;;19.48;26.00;103290.25;5006683;28;20072;-79
2023/02/10 11:28:49;;;;;;;126.25;116.15;;;;;;;19.50;26.05;103280.09;5010460;28;20050;-79
2023/02/10 11:31:28;;;;;;;121.85;112.30;;;;;;;19.14;26.24;103287.44;5000782;28;20606;-79
2023/02/10 11:33:59;;;;;;;121.78;112.40;;;;;;;18.93;26.43;103284.84;5012721;28;20049;-79
2023/02/10 11:36:37;;;;;;;126.68;117.05;;;;;;;18.50;26.92;103283.13;5011896;28;20111;-79
2023/02/10 11:39:06;;;;;;;133.25;122.88;;;;;;;18.28;27.27;103273.47;5012591;28;20042;-79
2023/02/10 11:41:34;;;;;;;126.70;116.80;;;;;;;18.04;27.37;103270.16;5010370;28;20126;-79
2023/02/10 11:44:02;;;;;;;119.90;110.50;;;;;;;17.99;27.72;103272.59;5010107;28;20058;-79
2023/02/10 11:46:31;;;;;;;116.88;107.60;;;;;;;17.75;27.66;103259.50;5010585;28;20141;-79
2023/02/10 11:49:00;;;;;;;121.28;110.07;;;;;;;17.70;28.00;103264.63;5009150;28;20046;-79
2023/02/10 11:51:27;;;;;;;122.38;112.57;;;;;;;17.35;28.67;103251.06;5015176;28;20064;-79
2023/02/10 11:53:57;;;;;;;119.03;109.30;;;;;;;17.08;28.86;103261.47;5007224;28;20050;-79
2023/02/10 11:59:32;;;;;;;117.47;107.90;;;;;;;16.45;29.26;103246.75;5013831;28;20069;-79
2023/02/10 12:02:09;;;;;;;120.53;110.63;;;;;;;15.99;30.07;103238.81;5009881;28;20567;-79
2023/02/10 12:05:07;;;;;;;124.13;114.22;;;;;;;15.33;30.98;103233.06;5015154;28;20049;-79
2023/02/10 12:07:43;;;;;;;120.60;110.60;;;;;;;14.49;32.22;103240.72;5014416;28;20488;-79
2023/02/10 12:10:18;;;;;;;120.43;110.55;;;;;;;13.17;34.18;103228.28;5013399;28;20547;-79
2023/02/10 12:12:53;;;;;;;116.10;106.43;;;;;;;11.94;36.26;103225.91;5012176;28;20046;-79
2023/02/10 12:15:28;;;;;;;121.22;111.53;;;;;;;10.73;38.88;103223.41;5013630;28;20104;-79
2023/02/10 12:18:08;;;;;;;123.75;113.78;;;;;;;9.69;41.83;103233.06;5011814;28;20077;-79
2023/02/10 12:20:51;;;;;;;118.05;108.55;;;;;;;8.87;45.02;103217.41;5012388;28;20471;-79
2023/02/10 12:23:40;;;;;;;121.65;111.60;;;;;;;8.23;49.13;103221.91;5012515;28;20512;-79
2023/02/10 12:26:15;;;;;;;125.25;115.13;;;;;;;7.74;53.09;103220.69;5014399;28;20046;-79
2023/02/10 12:28:54;;;;;;;124.57;114.47;;;;;;;7.27;57.61;103214.81;5014475;28;20054;-79
2023/02/10 12:31:32;;;;;;;124.00;114.15;;;;;;;7.07;62.22;103220.84;5014305;28;20052;-79
2023/02/10 12:34:17;;;;;;;118.00;108.30;;;;;;;6.81;66.27;103210.56;5013913;28;20054;-79
2023/02/10 12:36:54;;;;;;;118.55;108.53;;;;;;;6.42;69.78;103203.94;5013201;28;20046;-79
2023/02/10 12:39:23;;;;;;;112.35;103.20;;;;;;;6.27;73.48;103207.75;5012992;28;20436;-79
2023/02/10 12:42:03;;;;;;;122.63;112.80;;;;;;;6.09;76.38;103199.41;5013337;28;20042;-79
2023/02/10 12:44:41;;;;;;;120.25;110.22;;;;;;;6.01;79.01;103214.97;5014395;28;20041;-79
2023/02/10 12:47:20;;;;;;;124.40;114.78;;;;;;;5.92;81.09;103205.91;5014338;28;20042;-79
2023/02/10 12:50:02;;;;;;;119.47;109.65;;;;;;;5.76;82.27;103208.03;5013591;28;20451;-79
2023/02/10 12:52:36;;;;;;;119.90;110.20;;;;;;;5.77;83.97;103202.63;5011603;28;20041;-79
2023/02/10 12:55:13;;;;;;;121.82;111.95;;;;;;;5.72;85.54;103205.59;5012401;28;20049;-79
2023/02/10 12:57:47;;;;;;;125.55;115.65;;;;;;;5.64;86.91;103207.97;5013073;28;20103;-79
2023/02/10 13:00:20;;;;;;;125.32;115.13;;;;;;;5.62;88.30;103209.84;5014045;28;20058;-79
2023/02/10 13:02:51;;;;;;;118.45;108.72;;;;;;;5.58;89.30;103211.03;5011969;28;20054;-79
2023/02/10 13:05:22;;;;;;;122.10;112.13;;;;;;;5.55;90.70;103211.28;5013215;28;20180;-79
2023/02/10 13:07:51;;;;;;;124.30;114.40;;;;;;;5.49;92.23;103206.44;5013184;28;20514;-79
2023/02/10 13:10:29;;;;;;;121.78;111.95;;;;;;;5.45;93.00;103210.28;5013042;28;20578;-79
2023/02/10 13:13:04;;;;;;;124.63;114.70;;;;;;;5.37;93.72;103199.44;5011325;28;20504;-79
2023/02/10 13:15:35;;;;;;;125.63;115.97;;;;;;;5.35;93.62;103196.06;5011391;28;20050;-79
2023/02/10 13:18:03;;;;;;;125.43;115.38;;;;;;;5.36;95.57;103200.41;5012277;28;20062;-79
2023/02/10 13:20:40;;;;;;;119.95;110.32;;;;;;;5.36;97.06;103201.22;5013152;28;20076;-79
2023/02/10 13:23:19;;;;;;;120.22;110.78;;;;;;;5.33;97.95;103200.63;5012376;28;20523;-79
2023/02/10 13:26:03;;;;;;;120.47;110.70;;;;;;;5.30;98.46;103201.69;5013497;28;20400;-79
2023/02/10 13:28:43;;;;;;;117.97;108.57;;;;;;;5.28;98.73;103200.94;5012303;28;20052;-79
2023/02/10 13:31:32;;;;;;;118.85;109.05;;;;;;;5.26;97.77;103200.19;5012178;28;20041;-79
2023/02/10 13:34:04;;;;;;;125.00;115.13;;;;;;;5.21;98.97;103197.06;5011477;28;20427;-79
2023/02/10 13:36:37;;;;;;;120.60;110.65;;;;;;;5.21;99.55;103205.81;5012986;28;20053;-79
2023/02/10 13:39:07;;;;;;;123.38;113.35;;;;;;;5.19;99.74;103198.97;5013956;28;20050;-79
2023/02/10 13:41:46;;;;;;;122.45;112.55;;;;;;;5.18;100.00;103198.13;5012214;28;20049;-79
2023/02/10 13:44:24;;;;;;;127.55;117.30;;;;;;;5.19;99.76;103205.06;5011980;28;20050;-79
2023/02/10 13:46:57;;;;;;;124.35;114.28;;;;;;;5.13;99.72;103200.25;5010927;28;20041;-79
2023/02/10 13:49:24;;;;;;;125.93;115.43;;;;;;;5.13;100.00;103202.03;5009459;28;20064;-79
2023/02/10 13:51:59;;;;;;;121.50;111.68;;;;;;;5.12;100.00;103203.84;5010628;28;20111;-79
2023/02/10 13:54:28;;;;;;;121.53;112.07;;;;;;;5.10;99.98;103194.34;5013247;28;20423;-79
2023/02/10 13:56:57;;;;;;;115.75;106.20;;;;;;;5.18;99.45;103206.03;5012765;28;20053;-79
2023/02/10 13:59:37;;;;;;;119.43;109.38;;;;;;;5.12;100.00;103197.72;5011613;28;20321;-79
2023/02/10 14:02:16;;;;;;;117.32;107.35;;;;;;;5.10;100.00;103199.63;5010768;28;20046;-79
2023/02/10 14:04:46;;;;;;;117.30;107.30;;;;;;;5.08;100.00;103204.16;5012536;28;20045;-79
2023/02/10 14:07:32;;;;;;;117.78;108.05;;;;;;;5.12;100.00;103195.09;5012643;28;20216;-79
2023/02/10 14:10:06;;;;;;;123.40;113.22;;;;;;;4.99;100.00;103195.09;5010632;28;20459;-79
2023/02/10 14:12:34;;;;;;;122.57;112.47;;;;;;;4.98;100.00;103193.44;5015670;28;20108;-79
2023/02/10 14:15:21;;;;;;;123.45;113.10;;;;;;;4.94;100.00;103184.06;5014415;28;20046;-79
2023/02/10 14:17:57;;;;;;;117.25;107.78;;;;;;;4.91;100.00;103182.50;5014290;28;20045;-79
2023/02/10 14:20:27;;;;;;;115.47;106.32;;;;;;;4.91;100.00;103186.91;5016142;28;20141;-79
2023/02/10 14:22:58;;;;;;;121.80;111.80;;;;;;;4.86;100.00;103186.41;5014876;28;20500;-79
2023/02/10 14:25:31;;;;;;;127.20;117.53;;;;;;;4.88;100.00;103187.97;5013294;28;20119;-79
2023/02/10 14:27:58;;;;;;;120.28;110.43;;;;;;;4.77;100.00;103186.06;5016784;28;20050;-79
2023/02/10 14:30:32;;;;;;;120.38;110.53;;;;;;;4.68;100.00;103188.53;5017153;28;20423;-79
2023/02/10 14:32:59;;;;;;;116.97;107.65;;;;;;;4.57;100.00;103184.03;5017375;28;20050;-79
2023/02/10 14:35:29;;;;;;;126.15;116.35;;;;;;;4.51;100.00;103193.19;5014205;28;20049;-79
2023/02/10 14:37:57;;;;;;;124.82;114.70;;;;;;;4.39;100.00;103187.88;5015120;28;20111;-79
2023/02/10 14:40:26;;;;;;;123.97;113.32;;;;;;;4.32;100.00;103185.69;5012553;28;20058;-79
2023/02/10 14:42:53;;;;;;;116.32;106.63;;;;;;;4.22;100.00;103192.53;5015016;28;20042;-79
2023/02/10 14:45:22;;;;;;;119.07;109.60;;;;;;;4.07;100.00;103191.75;5014525;28;20053;-79
2023/02/10 14:47:56;;;;;;;121.25;111.25;;;;;;;3.94;100.00;103183.03;5010634;28;20050;-79
2023/02/10 14:50:25;;;;;;;117.45;107.95;;;;;;;3.77;100.00;103178.88;5013098;28;20392;-79
2023/02/10 14:52:52;;;;;;;113.43;104.13;;;;;;;3.71;100.00;103178.44;5013773;28;20042;-79
2023/02/10 14:55:30;;;;;;;111.38;102.22;;;;;;;3.60;100.00;103174.72;5015905;28;20123;-79
2023/02/10 14:58:03;;;;;;;107.80;98.93;;;;;;;3.51;100.00;103171.84;5015653;28;20124;-79
2023/02/10 15:00:30;;;;;;;113.20;104.00;;;;;;;3.41;100.00;103168.97;5014993;28;20100;-79
2023/02/10 15:03:01;;;;;;;111.75;102.75;;;;;;;3.40;100.00;103177.81;5015273;28;20463;-79
2023/02/10 15:05:32;;;;;;;109.90;100.65;;;;;;;3.39;100.00;103170.88;5016062;28;20053;-79
2023/02/10 15:08:01;;;;;;;109.47;100.50;;;;;;;3.36;100.00;103173.66;5015752;28;20045;-79
2023/02/10 15:10:34;;;;;;;113.97;104.25;;;;;;;3.35;100.00;103174.63;5015667;28;20042;-79
2023/02/10 15:13:02;;;;;;;112.18;102.90;;;;;;;3.10;100.00;103173.56;5011946;28;20038;-79
2023/02/10 15:15:32;;;;;;;109.40;100.55;;;;;;;3.05;100.00;103180.03;5014278;28;20714;-79
2023/02/10 15:18:05;;;;;;;107.05;98.00;;;;;;;3.04;100.00;103179.19;5010019;28;20057;-79
2023/02/10 15:20:33;;;;;;;109.68;100.15;;;;;;;2.98;100.00;103174.34;5005297;28;20447;-79
2023/02/10 15:23:15;;;;;;;115.43;106.13;;;;;;;2.89;100.00;103167.88;5012931;28;20069;-79
2023/02/10 15:25:42;;;;;;;114.95;105.95;;;;;;;2.88;100.00;103171.44;5012468;28;20112;-79
2023/02/10 15:28:27;;;;;;;106.78;98.22;;;;;;;2.80;100.00;103175.47;5012312;28;20522;-79
2023/02/10 15:31:00;;;;;;;109.00;100.13;;;;;;;2.78;100.00;103177.34;5011998;28;20050;-79
2023/02/10 15:33:33;;;;;;;106.43;97.63;;;;;;;2.80;100.00;103178.94;5013608;28;20084;-79
2023/02/10 15:36:15;;;;;;;111.50;102.13;;;;;;;2.75;100.00;103178.38;5001467;28;20049;-78
2023/02/10 15:38:44;;;;;;;106.57;97.47;;;;;;;2.72;100.00;103179.44;4937249;28;20489;-78
2023/02/10 15:41:28;;;;;;;113.90;104.28;;;;;;;2.73;100.00;103173.22;5008602;28;20046;-78
2023/02/10 15:43:55;;;;;;;106.43;97.25;;;;;;;2.77;100.00;103181.75;5008159;28;20054;-78
2023/02/10 15:46:25;;;;;;;111.90;102.85;;;;;;;2.71;100.00;103180.34;5008613;28;20124;-78
2023/02/10 15:48:53;;;;;;;115.45;105.72;;;;;;;2.67;100.00;103186.72;5006382;28;20615;-79
2023/02/10 15:51:24;;;;;;;107.22;98.07;;;;;;;2.63;100.00;103181.75;5011217;28;20100;-78
2023/02/10 15:53:54;;;;;;;111.13;101.85;;;;;;;2.63;100.00;103197.50;5008647;28;20495;-78
2023/02/10 15:56:21;;;;;;;107.35;98.47;;;;;;;2.56;100.00;103194.41;5009870;28;20495;-79
2023/02/10 15:58:48;;;;;;;115.25;105.55;;;;;;;2.58;100.00;103196.94;4987048;28;20119;-78
2023/02/10 16:01:15;;;;;;;121.57;110.97;;;;;;;2.52;100.00;103198.16;5004179;28;20058;-78
2023/02/10 16:03:41;;;;;;;132.10;120.47;;;;;;;2.48;100.00;103201.88;5009707;28;20046;-78
2023/02/10 16:06:14;;;;;;;133.27;122.47;;;;;;;2.45;100.00;103200.31;5007566;28;20089;-78
2023/02/10 16:08:42;;;;;;;129.93;119.50;;;;;;;2.44;100.00;103213.50;5012849;28;20049;-78
2023/02/10 16:11:10;;;;;;;129.20;117.47;;;;;;;2.40;100.00;103218.09;5007930;28;20046;-78
2023/02/10 16:13:37;;;;;;;135.57;123.72;;;;;;;2.33;100.00;103219.41;5008729;28;20046;-78
2023/02/10 16:16:06;;;;;;;148.18;133.82;;;;;;;2.30;100.00;103211.72;5009238;28;20679;-78
2023/02/10 16:18:33;;;;;;;145.38;131.82;;;;;;;2.23;100.00;103221.72;5007218;28;20140;-78
2023/02/10 16:21:01;;;;;;;149.27;135.65;;;;;;;2.16;100.00;103211.69;5010466;28;20042;-78
2023/02/10 16:23:29;;;;;;;139.82;127.40;;;;;;;2.13;100.00;103215.31;5004975;28;20050;-78
2023/02/10 16:25:56;;;;;;;145.45;132.02;;;;;;;2.10;100.00;103228.63;5008073;28;20471;-78
2023/02/10 16:28:23;;;;;;;139.13;126.78;;;;;;;2.02;100.00;103228.19;5006449;28;20112;-78
2023/02/10 16:30:50;;;;;;;138.68;125.65;;;;;;;2.00;100.00;103241.41;5005042;28;20112;-78
2023/02/10 16:33:16;;;;;;;143.60;130.38;;;;;;;2.00;100.00;103240.56;5001040;28;20046;-78
2023/02/10 16:35:43;;;;;;;144.13;130.32;;;;;;;1.96;100.00;103233.81;5003632;28;20116;-78
2023/02/10 16:38:11;;;;;;;143.23;128.30;;;;;;;1.90;100.00;103229.75;5005458;28;20050;-78
2023/02/10 16:40:39;;;;;;;148.60;132.57;;;;;;;1.89;100.00;103222.84;5006395;28;20046;-78
2023/02/10 16:43:06;;;;;;;138.80;125.20;;;;;;;1.84;100.00;103220.47;5002912;28;20124;-79
2023/02/10 16:45:34;;;;;;;141.57;128.02;;;;;;;1.85;100.00;103226.56;5004871;28;20057;-78
2023/02/10 16:48:02;;;;;;;146.38;132.50;;;;;;;1.76;100.00;103221.84;5008770;28;20042;-78
2023/02/10 16:50:31;;;;;;;149.43;135.35;;;;;;;1.72;100.00;103230.78;5008331;28;20042;-78
2023/02/10 16:52:58;;;;;;;145.63;131.60;;;;;;;1.69;100.00;103231.81;5004443;28;20100;-78
2023/02/10 16:55:25;;;;;;;141.15;127.35;;;;;;;1.66;100.00;103218.03;5006354;28;20104;-79
2023/02/10 16:57:54;;;;;;;143.40;130.25;;;;;;;1.60;100.00;103217.47;5007479;28;20109;-78
2023/02/10 17:00:22;;;;;;;134.32;122.15;;;;;;;1.56;100.00;103217.72;5009609;28;20129;-78
2023/02/10 17:02:49;;;;;;;137.32;124.95;;;;;;;1.56;100.00;103212.47;5010365;28;20048;-78
2023/02/10 17:05:17;;;;;;;115.82;105.25;;;;;;;1.57;100.00;103215.03;5007981;28;20041;-78